sensor_id;sensor_type;location;lat;lon;timestamp;temperature;humidity
13086;DHT22;6609;49.882;8.664;2022-11-03T00:01:08;8.60;82.70
13086;DHT22;6609;49.882;8.664;2022-11-03T00:03:35;8.60;82.80
13086;DHT22;6609;49.882;8.664;2022-11-03T00:06:02;8.60;82.80
13086;DHT22;6609;49.882;8.664;2022-11-03T00:08:36;8.60;82.90
13086;DHT22;6609;49.882;8.664;2022-11-03T00:11:04;8.50;83.00
13086;DHT22;6609;49.882;8.664;2022-11-03T00:13:31;8.50;83.90
13086;DHT22;6609;49.882;8.664;2022-11-03T00:15:58;8.40;83.40
13086;DHT22;6609;49.882;8.664;2022-11-03T00:18:24;8.40;83.60
13086;DHT22;6609;49.882;8.664;2022-11-03T00:20:55;8.40;83.70
13086;DHT22;6609;49.882;8.664;2022-11-03T00:23:24;8.30;83.80
13086;DHT22;6609;49.882;8.664;2022-11-03T00:25:52;8.30;84.00
13086;DHT22;6609;49.882;8.664;2022-11-03T00:28:19;8.30;84.10
13086;DHT22;6609;49.882;8.664;2022-11-03T00:30:46;8.30;84.20
13086;DHT22;6609;49.882;8.664;2022-11-03T00:33:13;8.30;84.40
13086;DHT22;6609;49.882;8.664;2022-11-03T00:35:39;8.30;84.50
13086;DHT22;6609;49.882;8.664;2022-11-03T00:38:06;8.30;84.50
13086;DHT22;6609;49.882;8.664;2022-11-03T00:40:33;8.20;84.50
13086;DHT22;6609;49.882;8.664;2022-11-03T00:43:01;8.20;84.50
13086;DHT22;6609;49.882;8.664;2022-11-03T00:45:27;8.20;84.70
13086;DHT22;6609;49.882;8.664;2022-11-03T00:47:55;8.10;84.70
13086;DHT22;6609;49.882;8.664;2022-11-03T00:50:39;8.10;84.80
13086;DHT22;6609;49.882;8.664;2022-11-03T00:53:06;8.10;84.80
13086;DHT22;6609;49.882;8.664;2022-11-03T00:55:33;8.10;85.10
13086;DHT22;6609;49.882;8.664;2022-11-03T00:58:01;8.10;85.10
13086;DHT22;6609;49.882;8.664;2022-11-03T01:00:27;8.10;85.10
13086;DHT22;6609;49.882;8.664;2022-11-03T01:02:54;8.00;85.00
13086;DHT22;6609;49.882;8.664;2022-11-03T01:05:21;8.00;85.00
13086;DHT22;6609;49.882;8.664;2022-11-03T01:08:05;8.00;85.00
13086;DHT22;6609;49.882;8.664;2022-11-03T01:10:35;8.00;85.00
13086;DHT22;6609;49.882;8.664;2022-11-03T01:13:25;7.90;84.90
13086;DHT22;6609;49.882;8.664;2022-11-03T01:15:55;7.90;84.90
13086;DHT22;6609;49.882;8.664;2022-11-03T01:18:22;7.90;84.90
13086;DHT22;6609;49.882;8.664;2022-11-03T01:20:53;7.90;85.00
13086;DHT22;6609;49.882;8.664;2022-11-03T01:23:20;7.90;85.20
13086;DHT22;6609;49.882;8.664;2022-11-03T01:25:46;7.80;85.30
13086;DHT22;6609;49.882;8.664;2022-11-03T01:28:13;7.80;85.50
13086;DHT22;6609;49.882;8.664;2022-11-03T01:30:41;7.90;85.60
13086;DHT22;6609;49.882;8.664;2022-11-03T01:33:08;7.80;85.50
13086;DHT22;6609;49.882;8.664;2022-11-03T01:35:34;7.80;85.50
13086;DHT22;6609;49.882;8.664;2022-11-03T01:38:01;7.80;85.60
13086;DHT22;6609;49.882;8.664;2022-11-03T01:40:28;7.70;85.50
13086;DHT22;6609;49.882;8.664;2022-11-03T01:45:36;7.70;85.60
13086;DHT22;6609;49.882;8.664;2022-11-03T01:48:06;7.70;85.90
13086;DHT22;6609;49.882;8.664;2022-11-03T01:50:33;7.70;85.90
13086;DHT22;6609;49.882;8.664;2022-11-03T01:52:59;7.70;86.00
13086;DHT22;6609;49.882;8.664;2022-11-03T01:55:29;7.70;86.00
13086;DHT22;6609;49.882;8.664;2022-11-03T01:58:00;7.60;85.90
13086;DHT22;6609;49.882;8.664;2022-11-03T02:00:28;7.60;86.00
13086;DHT22;6609;49.882;8.664;2022-11-03T02:02:54;7.60;86.10
13086;DHT22;6609;49.882;8.664;2022-11-03T02:05:24;7.60;86.10
13086;DHT22;6609;49.882;8.664;2022-11-03T02:07:55;7.60;86.20
13086;DHT22;6609;49.882;8.664;2022-11-03T02:10:23;7.60;86.20
13086;DHT22;6609;49.882;8.664;2022-11-03T02:12:50;7.60;86.20
13086;DHT22;6609;49.882;8.664;2022-11-03T02:15:18;7.50;86.10
13086;DHT22;6609;49.882;8.664;2022-11-03T02:17:49;7.50;86.20
13086;DHT22;6609;49.882;8.664;2022-11-03T02:20:19;7.50;86.20
13086;DHT22;6609;49.882;8.664;2022-11-03T02:23:13;7.50;86.30
13086;DHT22;6609;49.882;8.664;2022-11-03T02:25:43;7.50;86.20
13086;DHT22;6609;49.882;8.664;2022-11-03T02:28:12;7.50;86.30
13086;DHT22;6609;49.882;8.664;2022-11-03T02:30:42;7.50;86.30
13086;DHT22;6609;49.882;8.664;2022-11-03T02:33:16;7.50;86.40
13086;DHT22;6609;49.882;8.664;2022-11-03T02:35:50;7.50;86.30
13086;DHT22;6609;49.882;8.664;2022-11-03T02:38:19;7.50;86.20
13086;DHT22;6609;49.882;8.664;2022-11-03T02:40:51;7.40;86.10
13086;DHT22;6609;49.882;8.664;2022-11-03T02:43:20;7.40;86.20
13086;DHT22;6609;49.882;8.664;2022-11-03T02:45:49;7.40;86.30
13086;DHT22;6609;49.882;8.664;2022-11-03T02:48:17;7.40;86.30
13086;DHT22;6609;49.882;8.664;2022-11-03T02:50:46;7.40;86.20
13086;DHT22;6609;49.882;8.664;2022-11-03T02:53:14;7.40;86.40
13086;DHT22;6609;49.882;8.664;2022-11-03T02:55:50;7.40;86.40
13086;DHT22;6609;49.882;8.664;2022-11-03T02:58:21;7.40;86.30
13086;DHT22;6609;49.882;8.664;2022-11-03T03:00:53;7.40;86.40
13086;DHT22;6609;49.882;8.664;2022-11-03T03:03:25;7.40;86.40
13086;DHT22;6609;49.882;8.664;2022-11-03T03:05:56;7.30;86.20
13086;DHT22;6609;49.882;8.664;2022-11-03T03:08:25;7.30;86.20
13086;DHT22;6609;49.882;8.664;2022-11-03T03:10:54;7.30;86.20
13086;DHT22;6609;49.882;8.664;2022-11-03T03:13:21;7.20;86.20
13086;DHT22;6609;49.882;8.664;2022-11-03T03:16:01;7.20;86.20
13086;DHT22;6609;49.882;8.664;2022-11-03T03:18:42;7.20;86.20
13086;DHT22;6609;49.882;8.664;2022-11-03T03:21:17;7.10;86.10
13086;DHT22;6609;49.882;8.664;2022-11-03T03:23:48;7.10;86.20
13086;DHT22;6609;49.882;8.664;2022-11-03T03:26:20;7.00;86.10
13086;DHT22;6609;49.882;8.664;2022-11-03T03:28:50;7.00;86.30
13086;DHT22;6609;49.882;8.664;2022-11-03T03:31:19;7.00;86.30
13086;DHT22;6609;49.882;8.664;2022-11-03T03:33:50;7.00;86.40
13086;DHT22;6609;49.882;8.664;2022-11-03T03:36:19;6.90;86.30
13086;DHT22;6609;49.882;8.664;2022-11-03T03:38:49;7.00;86.40
13086;DHT22;6609;49.882;8.664;2022-11-03T03:41:19;6.90;86.40
13086;DHT22;6609;49.882;8.664;2022-11-03T03:43:48;6.90;86.40
13086;DHT22;6609;49.882;8.664;2022-11-03T03:46:16;6.80;86.40
13086;DHT22;6609;49.882;8.664;2022-11-03T03:48:44;6.80;86.40
13086;DHT22;6609;49.882;8.664;2022-11-03T03:51:12;6.80;86.40
13086;DHT22;6609;49.882;8.664;2022-11-03T03:53:39;6.80;86.60
13086;DHT22;6609;49.882;8.664;2022-11-03T03:56:06;6.80;86.70
13086;DHT22;6609;49.882;8.664;2022-11-03T03:58:34;6.80;86.70
13086;DHT22;6609;49.882;8.664;2022-11-03T04:01:01;6.80;86.70
13086;DHT22;6609;49.882;8.664;2022-11-03T04:03:27;6.80;86.70
13086;DHT22;6609;49.882;8.664;2022-11-03T04:05:54;6.80;86.60
13086;DHT22;6609;49.882;8.664;2022-11-03T04:08:21;6.80;86.60
13086;DHT22;6609;49.882;8.664;2022-11-03T04:10:48;6.80;86.70
13086;DHT22;6609;49.882;8.664;2022-11-03T04:13:28;6.80;86.60
13086;DHT22;6609;49.882;8.664;2022-11-03T04:16:14;6.80;86.70
13086;DHT22;6609;49.882;8.664;2022-11-03T04:18:58;6.70;86.40
13086;DHT22;6609;49.882;8.664;2022-11-03T04:21:43;6.70;87.20
13086;DHT22;6609;49.882;8.664;2022-11-03T04:24:27;6.70;86.60
13086;DHT22;6609;49.882;8.664;2022-11-03T04:26:55;6.70;86.50
13086;DHT22;6609;49.882;8.664;2022-11-03T04:29:23;6.70;86.40
13086;DHT22;6609;49.882;8.664;2022-11-03T04:31:51;6.70;86.50
13086;DHT22;6609;49.882;8.664;2022-11-03T04:34:18;6.60;86.40
13086;DHT22;6609;49.882;8.664;2022-11-03T04:36:45;6.60;86.60
13086;DHT22;6609;49.882;8.664;2022-11-03T04:39:16;6.60;86.70
13086;DHT22;6609;49.882;8.664;2022-11-03T04:41:44;6.60;86.80
13086;DHT22;6609;49.882;8.664;2022-11-03T04:44:13;6.60;86.90
13086;DHT22;6609;49.882;8.664;2022-11-03T04:46:40;6.60;86.90
13086;DHT22;6609;49.882;8.664;2022-11-03T04:49:13;6.60;86.90
13086;DHT22;6609;49.882;8.664;2022-11-03T04:51:42;6.60;86.80
13086;DHT22;6609;49.882;8.664;2022-11-03T04:54:13;6.60;86.70
13086;DHT22;6609;49.882;8.664;2022-11-03T04:56:40;6.60;86.90
13086;DHT22;6609;49.882;8.664;2022-11-03T04:59:10;6.60;86.80
13086;DHT22;6609;49.882;8.664;2022-11-03T05:01:37;6.60;86.70
13086;DHT22;6609;49.882;8.664;2022-11-03T05:04:11;6.50;86.80
13086;DHT22;6609;49.882;8.664;2022-11-03T05:06:39;6.60;86.80
13086;DHT22;6609;49.882;8.664;2022-11-03T05:09:11;6.60;86.70
13086;DHT22;6609;49.882;8.664;2022-11-03T05:11:41;6.60;86.70
13086;DHT22;6609;49.882;8.664;2022-11-03T05:14:14;6.50;86.50
13086;DHT22;6609;49.882;8.664;2022-11-03T05:16:41;6.50;86.50
13086;DHT22;6609;49.882;8.664;2022-11-03T05:19:14;6.50;86.60
13086;DHT22;6609;49.882;8.664;2022-11-03T05:21:41;6.40;86.50
13086;DHT22;6609;49.882;8.664;2022-11-03T05:24:11;6.40;86.50
13086;DHT22;6609;49.882;8.664;2022-11-03T05:26:39;6.40;86.60
13086;DHT22;6609;49.882;8.664;2022-11-03T05:29:12;6.40;86.60
13086;DHT22;6609;49.882;8.664;2022-11-03T05:31:41;6.30;86.60
13086;DHT22;6609;49.882;8.664;2022-11-03T05:34:29;6.30;86.70
13086;DHT22;6609;49.882;8.664;2022-11-03T05:36:58;6.30;86.70
13086;DHT22;6609;49.882;8.664;2022-11-03T05:39:29;6.30;86.60
13086;DHT22;6609;49.882;8.664;2022-11-03T05:41:57;6.30;86.70
13086;DHT22;6609;49.882;8.664;2022-11-03T05:44:28;5.80;86.20
13086;DHT22;6609;49.882;8.664;2022-11-03T05:46:58;6.30;86.50
13086;DHT22;6609;49.882;8.664;2022-11-03T05:49:28;6.30;86.40
13086;DHT22;6609;49.882;8.664;2022-11-03T05:51:55;6.30;86.50
13086;DHT22;6609;49.882;8.664;2022-11-03T05:54:25;6.30;86.50
13086;DHT22;6609;49.882;8.664;2022-11-03T05:56:52;6.30;86.40
13086;DHT22;6609;49.882;8.664;2022-11-03T05:59:24;6.30;86.50
13086;DHT22;6609;49.882;8.664;2022-11-03T06:01:58;6.30;86.60
13086;DHT22;6609;49.882;8.664;2022-11-03T06:04:28;6.30;86.60
13086;DHT22;6609;49.882;8.664;2022-11-03T06:07:00;6.30;86.60
13086;DHT22;6609;49.882;8.664;2022-11-03T06:09:28;6.30;86.50
13086;DHT22;6609;49.882;8.664;2022-11-03T06:11:59;6.30;86.40
13086;DHT22;6609;49.882;8.664;2022-11-03T06:14:29;6.30;86.40
13086;DHT22;6609;49.882;8.664;2022-11-03T06:16:58;6.30;86.40
13086;DHT22;6609;49.882;8.664;2022-11-03T06:19:29;6.30;86.40
13086;DHT22;6609;49.882;8.664;2022-11-03T06:22:00;6.30;86.50
13086;DHT22;6609;49.882;8.664;2022-11-03T06:24:30;6.30;86.60
13086;DHT22;6609;49.882;8.664;2022-11-03T06:26:58;6.30;86.60
13086;DHT22;6609;49.882;8.664;2022-11-03T06:29:25;6.30;86.80
13086;DHT22;6609;49.882;8.664;2022-11-03T06:31:54;6.40;86.80
13086;DHT22;6609;49.882;8.664;2022-11-03T06:34:32;6.40;86.60
13086;DHT22;6609;49.882;8.664;2022-11-03T06:37:09;6.50;86.50
13086;DHT22;6609;49.882;8.664;2022-11-03T06:39:36;6.50;86.40
13086;DHT22;6609;49.882;8.664;2022-11-03T06:42:10;6.50;86.30
13086;DHT22;6609;49.882;8.664;2022-11-03T06:44:39;6.50;86.40
13086;DHT22;6609;49.882;8.664;2022-11-03T06:47:18;6.50;86.40
13086;DHT22;6609;49.882;8.664;2022-11-03T06:49:47;6.50;86.40
13086;DHT22;6609;49.882;8.664;2022-11-03T06:52:22;6.50;86.40
13086;DHT22;6609;49.882;8.664;2022-11-03T06:54:54;6.60;86.50
13086;DHT22;6609;49.882;8.664;2022-11-03T06:57:21;6.70;86.70
13086;DHT22;6609;49.882;8.664;2022-11-03T06:59:49;6.70;86.70
13086;DHT22;6609;49.882;8.664;2022-11-03T07:02:38;6.80;86.70
13086;DHT22;6609;49.882;8.664;2022-11-03T07:05:17;6.80;86.60
13086;DHT22;6609;49.882;8.664;2022-11-03T07:07:46;6.90;86.50
13086;DHT22;6609;49.882;8.664;2022-11-03T07:10:12;7.00;86.50
13086;DHT22;6609;49.882;8.664;2022-11-03T07:12:40;7.10;86.50
13086;DHT22;6609;49.882;8.664;2022-11-03T07:15:18;7.10;86.40
13086;DHT22;6609;49.882;8.664;2022-11-03T07:17:53;7.20;86.40
13086;DHT22;6609;49.882;8.664;2022-11-03T07:20:21;7.30;86.40
13086;DHT22;6609;49.882;8.664;2022-11-03T07:22:49;7.40;86.30
13086;DHT22;6609;49.882;8.664;2022-11-03T07:25:19;7.70;86.40
13086;DHT22;6609;49.882;8.664;2022-11-03T07:27:48;7.50;86.00
13086;DHT22;6609;49.882;8.664;2022-11-03T07:30:19;7.80;86.10
13086;DHT22;6609;49.882;8.664;2022-11-03T07:32:47;7.70;85.90
13086;DHT22;6609;49.882;8.664;2022-11-03T07:35:28;7.80;85.80
13086;DHT22;6609;49.882;8.664;2022-11-03T07:37:55;8.00;85.70
13086;DHT22;6609;49.882;8.664;2022-11-03T07:40:25;8.10;85.80
13086;DHT22;6609;49.882;8.664;2022-11-03T07:42:56;8.20;85.50
13086;DHT22;6609;49.882;8.664;2022-11-03T07:45:36;8.30;85.30
13086;DHT22;6609;49.882;8.664;2022-11-03T07:48:13;8.40;85.40
13086;DHT22;6609;49.882;8.664;2022-11-03T07:50:45;8.60;85.50
13086;DHT22;6609;49.882;8.664;2022-11-03T07:53:15;8.70;85.20
13086;DHT22;6609;49.882;8.664;2022-11-03T07:55:44;8.80;85.00
13086;DHT22;6609;49.882;8.664;2022-11-03T07:58:23;9.00;84.80
13086;DHT22;6609;49.882;8.664;2022-11-03T08:00:53;9.10;84.20
13086;DHT22;6609;49.882;8.664;2022-11-03T08:03:35;9.20;83.80
13086;DHT22;6609;49.882;8.664;2022-11-03T08:06:05;9.30;83.60
13086;DHT22;6609;49.882;8.664;2022-11-03T08:08:31;9.50;83.60
13086;DHT22;6609;49.882;8.664;2022-11-03T08:10:58;9.80;83.70
13086;DHT22;6609;49.882;8.664;2022-11-03T08:13:25;10.40;82.10
13086;DHT22;6609;49.882;8.664;2022-11-03T08:15:52;10.80;80.20
13086;DHT22;6609;49.882;8.664;2022-11-03T08:18:18;11.20;79.00
13086;DHT22;6609;49.882;8.664;2022-11-03T08:20:45;11.50;77.10
13086;DHT22;6609;49.882;8.664;2022-11-03T08:23:13;11.70;75.90
13086;DHT22;6609;49.882;8.664;2022-11-03T08:25:41;11.90;75.30
13086;DHT22;6609;49.882;8.664;2022-11-03T08:28:08;12.00;74.90
13086;DHT22;6609;49.882;8.664;2022-11-03T08:30:35;12.20;74.30
13086;DHT22;6609;49.882;8.664;2022-11-03T08:33:01;12.50;73.70
13086;DHT22;6609;49.882;8.664;2022-11-03T08:35:28;12.70;73.00
13086;DHT22;6609;49.882;8.664;2022-11-03T08:37:55;12.90;73.10
13086;DHT22;6609;49.882;8.664;2022-11-03T08:40:23;13.10;73.30
13086;DHT22;6609;49.882;8.664;2022-11-03T08:42:50;13.40;73.20
13086;DHT22;6609;49.882;8.664;2022-11-03T08:45:17;13.60;72.40
13086;DHT22;6609;49.882;8.664;2022-11-03T08:47:43;14.20;71.70
13086;DHT22;6609;49.882;8.664;2022-11-03T08:50:10;15.00;69.50
13086;DHT22;6609;49.882;8.664;2022-11-03T08:52:37;15.70;66.50
13086;DHT22;6609;49.882;8.664;2022-11-03T08:55:04;16.50;63.70
13086;DHT22;6609;49.882;8.664;2022-11-03T08:57:33;17.20;61.10
13086;DHT22;6609;49.882;8.664;2022-11-03T08:59:59;17.80;58.00
13086;DHT22;6609;49.882;8.664;2022-11-03T09:02:26;18.60;55.10
13086;DHT22;6609;49.882;8.664;2022-11-03T09:04:53;19.40;51.30
13086;DHT22;6609;49.882;8.664;2022-11-03T09:07:19;19.50;50.00
13086;DHT22;6609;49.882;8.664;2022-11-03T09:09:46;19.30;50.00
13086;DHT22;6609;49.882;8.664;2022-11-03T09:12:13;18.70;50.70
13086;DHT22;6609;49.882;8.664;2022-11-03T09:14:41;18.40;52.20
13086;DHT22;6609;49.882;8.664;2022-11-03T09:17:08;18.00;53.40
13086;DHT22;6609;49.882;8.664;2022-11-03T09:19:34;17.80;54.50
13086;DHT22;6609;49.882;8.664;2022-11-03T09:22:01;17.10;55.70
13086;DHT22;6609;49.882;8.664;2022-11-03T09:24:28;16.70;56.60
13086;DHT22;6609;49.882;8.664;2022-11-03T09:26:55;16.20;58.00
13086;DHT22;6609;49.882;8.664;2022-11-03T09:29:22;15.70;59.60
13086;DHT22;6609;49.882;8.664;2022-11-03T09:31:50;15.40;60.80
13086;DHT22;6609;49.882;8.664;2022-11-03T09:34:17;16.00;62.20
13086;DHT22;6609;49.882;8.664;2022-11-03T09:36:44;14.90;61.90
13086;DHT22;6609;49.882;8.664;2022-11-03T09:39:10;14.90;63.00
13086;DHT22;6609;49.882;8.664;2022-11-03T09:41:37;14.50;63.40
13086;DHT22;6609;49.882;8.664;2022-11-03T09:44:04;14.30;64.10
13086;DHT22;6609;49.882;8.664;2022-11-03T09:46:32;14.40;65.00
13086;DHT22;6609;49.882;8.664;2022-11-03T09:49:01;14.20;65.80
13086;DHT22;6609;49.882;8.664;2022-11-03T09:51:29;13.80;66.30
13086;DHT22;6609;49.882;8.664;2022-11-03T09:54:00;13.70;66.90
13086;DHT22;6609;49.882;8.664;2022-11-03T09:56:27;13.70;67.40
13086;DHT22;6609;49.882;8.664;2022-11-03T09:58:54;13.70;68.00
13086;DHT22;6609;49.882;8.664;2022-11-03T10:01:22;13.80;68.50
13086;DHT22;6609;49.882;8.664;2022-11-03T10:03:48;13.90;68.70
13086;DHT22;6609;49.882;8.664;2022-11-03T10:06:17;13.90;68.70
13086;DHT22;6609;49.882;8.664;2022-11-03T10:08:46;14.50;69.20
13086;DHT22;6609;49.882;8.664;2022-11-03T10:11:13;13.90;68.90
13086;DHT22;6609;49.882;8.664;2022-11-03T10:13:43;13.90;68.90
13086;DHT22;6609;49.882;8.664;2022-11-03T10:16:15;14.00;68.90
13086;DHT22;6609;49.882;8.664;2022-11-03T10:18:43;14.00;69.70
13086;DHT22;6609;49.882;8.664;2022-11-03T10:21:14;14.10;69.10
13086;DHT22;6609;49.882;8.664;2022-11-03T10:23:42;13.90;68.90
13086;DHT22;6609;49.882;8.664;2022-11-03T10:26:10;13.90;69.00
13086;DHT22;6609;49.882;8.664;2022-11-03T10:28:38;13.90;69.50
13086;DHT22;6609;49.882;8.664;2022-11-03T10:31:06;13.90;70.00
13086;DHT22;6609;49.882;8.664;2022-11-03T10:33:35;13.90;70.30
13086;DHT22;6609;49.882;8.664;2022-11-03T10:36:04;14.00;70.40
13086;DHT22;6609;49.882;8.664;2022-11-03T10:38:31;14.10;70.60
13086;DHT22;6609;49.882;8.664;2022-11-03T10:41:11;14.20;69.80
13086;DHT22;6609;49.882;8.664;2022-11-03T10:43:39;14.30;69.60
13086;DHT22;6609;49.882;8.664;2022-11-03T10:46:12;14.30;69.70
13086;DHT22;6609;49.882;8.664;2022-11-03T10:48:40;14.30;69.70
13086;DHT22;6609;49.882;8.664;2022-11-03T10:51:10;14.50;69.90
13086;DHT22;6609;49.882;8.664;2022-11-03T10:53:37;14.50;70.00
13086;DHT22;6609;49.882;8.664;2022-11-03T10:56:05;14.60;69.70
13086;DHT22;6609;49.882;8.664;2022-11-03T10:58:33;14.60;69.70
13086;DHT22;6609;49.882;8.664;2022-11-03T11:01:02;14.60;69.60
13086;DHT22;6609;49.882;8.664;2022-11-03T11:03:29;14.60;69.60
13086;DHT22;6609;49.882;8.664;2022-11-03T11:05:56;14.50;69.70
13086;DHT22;6609;49.882;8.664;2022-11-03T11:08:23;14.40;69.80
13086;DHT22;6609;49.882;8.664;2022-11-03T11:10:50;14.40;70.10
13086;DHT22;6609;49.882;8.664;2022-11-03T11:13:26;14.40;70.30
13086;DHT22;6609;49.882;8.664;2022-11-03T11:15:56;14.40;70.30
13086;DHT22;6609;49.882;8.664;2022-11-03T11:22:00;14.30;70.50
13086;DHT22;6609;49.882;8.664;2022-11-03T11:24:55;14.30;71.00
13086;DHT22;6609;49.882;8.664;2022-11-03T11:30:56;14.30;70.90
13086;DHT22;6609;49.882;8.664;2022-11-03T11:33:24;14.30;71.10
13086;DHT22;6609;49.882;8.664;2022-11-03T11:36:18;14.20;71.10
13086;DHT22;6609;49.882;8.664;2022-11-03T11:39:06;14.20;71.10
13086;DHT22;6609;49.882;8.664;2022-11-03T11:42:09;14.20;71.30
13086;DHT22;6609;49.882;8.664;2022-11-03T11:44:48;14.20;71.90
13086;DHT22;6609;49.882;8.664;2022-11-03T11:47:33;14.20;71.90
13086;DHT22;6609;49.882;8.664;2022-11-03T11:53:21;14.20;71.90
13086;DHT22;6609;49.882;8.664;2022-11-03T11:55:53;14.20;71.90
13086;DHT22;6609;49.882;8.664;2022-11-03T11:58:24;14.40;72.10
13086;DHT22;6609;49.882;8.664;2022-11-03T12:00:57;14.30;72.00
13086;DHT22;6609;49.882;8.664;2022-11-03T12:03:29;14.30;71.70
13086;DHT22;6609;49.882;8.664;2022-11-03T12:05:57;14.30;71.60
13086;DHT22;6609;49.882;8.664;2022-11-03T12:08:26;14.30;71.40
13086;DHT22;6609;49.882;8.664;2022-11-03T12:10:58;14.30;71.20
13086;DHT22;6609;49.882;8.664;2022-11-03T12:13:45;14.30;71.00
13086;DHT22;6609;49.882;8.664;2022-11-03T12:16:30;14.30;70.70
13086;DHT22;6609;49.882;8.664;2022-11-03T12:19:37;14.30;70.60
13086;DHT22;6609;49.882;8.664;2022-11-03T12:22:07;14.30;70.50
13086;DHT22;6609;49.882;8.664;2022-11-03T12:24:37;14.20;70.10
13086;DHT22;6609;49.882;8.664;2022-11-03T12:27:38;14.10;70.20
13086;DHT22;6609;49.882;8.664;2022-11-03T12:30:10;14.10;70.70
13086;DHT22;6609;49.882;8.664;2022-11-03T12:32:37;14.00;70.80
13086;DHT22;6609;49.882;8.664;2022-11-03T12:35:07;14.00;70.90
13086;DHT22;6609;49.882;8.664;2022-11-03T12:37:34;14.00;71.00
13086;DHT22;6609;49.882;8.664;2022-11-03T12:40:02;14.00;71.20
13086;DHT22;6609;49.882;8.664;2022-11-03T12:42:29;14.00;71.50
13086;DHT22;6609;49.882;8.664;2022-11-03T12:44:55;14.00;71.60
13086;DHT22;6609;49.882;8.664;2022-11-03T12:47:22;14.00;71.50
13086;DHT22;6609;49.882;8.664;2022-11-03T12:49:49;14.70;72.40
13086;DHT22;6609;49.882;8.664;2022-11-03T12:52:17;14.10;71.80
13086;DHT22;6609;49.882;8.664;2022-11-03T12:54:44;14.10;71.60
13086;DHT22;6609;49.882;8.664;2022-11-03T12:57:11;14.20;71.40
13086;DHT22;6609;49.882;8.664;2022-11-03T12:59:38;14.20;71.20
13086;DHT22;6609;49.882;8.664;2022-11-03T13:02:06;14.30;70.90
13086;DHT22;6609;49.882;8.664;2022-11-03T13:04:33;14.30;70.90
13086;DHT22;6609;49.882;8.664;2022-11-03T13:07:01;14.30;70.90
13086;DHT22;6609;49.882;8.664;2022-11-03T13:09:29;14.40;71.30
13086;DHT22;6609;49.882;8.664;2022-11-03T13:11:56;14.40;71.10
13086;DHT22;6609;49.882;8.664;2022-11-03T13:14:40;14.40;70.90
13086;DHT22;6609;49.882;8.664;2022-11-03T13:17:07;14.40;70.70
13086;DHT22;6609;49.882;8.664;2022-11-03T13:19:34;14.40;70.70
13086;DHT22;6609;49.882;8.664;2022-11-03T13:22:00;14.50;70.90
13086;DHT22;6609;49.882;8.664;2022-11-03T13:24:28;14.40;70.80
13086;DHT22;6609;49.882;8.664;2022-11-03T13:26:55;14.50;70.90
13086;DHT22;6609;49.882;8.664;2022-11-03T13:29:22;14.50;71.10
13086;DHT22;6609;49.882;8.664;2022-11-03T13:31:48;14.50;71.30
13086;DHT22;6609;49.882;8.664;2022-11-03T13:34:15;14.50;71.30
13086;DHT22;6609;49.882;8.664;2022-11-03T13:36:42;14.60;71.70
13086;DHT22;6609;49.882;8.664;2022-11-03T13:39:08;14.50;71.70
13086;DHT22;6609;49.882;8.664;2022-11-03T13:41:36;14.50;71.60
13086;DHT22;6609;49.882;8.664;2022-11-03T13:44:03;14.50;71.70
13086;DHT22;6609;49.882;8.664;2022-11-03T13:46:30;14.50;72.00
13086;DHT22;6609;49.882;8.664;2022-11-03T13:48:56;14.40;72.10
13086;DHT22;6609;49.882;8.664;2022-11-03T13:51:23;14.40;72.10
13086;DHT22;6609;49.882;8.664;2022-11-03T13:53:50;14.40;72.40
13086;DHT22;6609;49.882;8.664;2022-11-03T13:56:17;14.40;72.70
13086;DHT22;6609;49.882;8.664;2022-11-03T13:58:45;14.40;72.90
13086;DHT22;6609;49.882;8.664;2022-11-03T14:01:12;14.40;73.50
13086;DHT22;6609;49.882;8.664;2022-11-03T14:03:38;14.30;73.80
13086;DHT22;6609;49.882;8.664;2022-11-03T14:06:06;14.30;73.90
13086;DHT22;6609;49.882;8.664;2022-11-03T14:08:33;14.30;74.10
13086;DHT22;6609;49.882;8.664;2022-11-03T14:10:59;14.30;74.10
13086;DHT22;6609;49.882;8.664;2022-11-03T14:13:48;14.30;73.90
13086;DHT22;6609;49.882;8.664;2022-11-03T14:16:13;14.30;73.60
13086;DHT22;6609;49.882;8.664;2022-11-03T14:18:40;14.30;73.50
13086;DHT22;6609;49.882;8.664;2022-11-03T14:21:07;14.40;73.50
13086;DHT22;6609;49.882;8.664;2022-11-03T14:23:33;14.30;73.50
13086;DHT22;6609;49.882;8.664;2022-11-03T14:26:00;14.30;73.60
13086;DHT22;6609;49.882;8.664;2022-11-03T14:28:27;14.30;74.00
13086;DHT22;6609;49.882;8.664;2022-11-03T14:30:55;14.30;74.20
13086;DHT22;6609;49.882;8.664;2022-11-03T14:33:24;14.20;74.30
13086;DHT22;6609;49.882;8.664;2022-11-03T14:35:51;14.20;74.40
13086;DHT22;6609;49.882;8.664;2022-11-03T14:38:18;14.20;74.30
13086;DHT22;6609;49.882;8.664;2022-11-03T14:40:44;14.20;74.20
13086;DHT22;6609;49.882;8.664;2022-11-03T14:43:28;14.20;74.10
13086;DHT22;6609;49.882;8.664;2022-11-03T14:45:56;14.10;74.10
13086;DHT22;6609;49.882;8.664;2022-11-03T14:48:23;14.10;74.20
13086;DHT22;6609;49.882;8.664;2022-11-03T14:50:50;14.10;74.20
13086;DHT22;6609;49.882;8.664;2022-11-03T14:53:17;14.00;74.10
13086;DHT22;6609;49.882;8.664;2022-11-03T14:55:44;14.00;74.00
13086;DHT22;6609;49.882;8.664;2022-11-03T14:58:11;14.00;73.90
13086;DHT22;6609;49.882;8.664;2022-11-03T15:00:38;14.00;73.70
13086;DHT22;6609;49.882;8.664;2022-11-03T15:03:06;13.90;73.60
13086;DHT22;6609;49.882;8.664;2022-11-03T15:05:33;13.90;73.60
13086;DHT22;6609;49.882;8.664;2022-11-03T15:08:12;13.90;73.40
13086;DHT22;6609;49.882;8.664;2022-11-03T15:10:39;13.90;73.40
13086;DHT22;6609;49.882;8.664;2022-11-03T15:13:06;13.80;73.40
13086;DHT22;6609;49.882;8.664;2022-11-03T15:15:32;13.80;73.50
13086;DHT22;6609;49.882;8.664;2022-11-03T15:18:01;13.80;73.60
13086;DHT22;6609;49.882;8.664;2022-11-03T15:20:29;13.80;73.60
13086;DHT22;6609;49.882;8.664;2022-11-03T15:22:56;13.80;73.60
13086;DHT22;6609;49.882;8.664;2022-11-03T15:25:23;13.80;73.70
13086;DHT22;6609;49.882;8.664;2022-11-03T15:27:49;13.70;73.60
13086;DHT22;6609;49.882;8.664;2022-11-03T15:30:16;13.70;73.60
13086;DHT22;6609;49.882;8.664;2022-11-03T15:32:44;13.70;73.60
13086;DHT22;6609;49.882;8.664;2022-11-03T15:35:11;13.70;73.60
13086;DHT22;6609;49.882;8.664;2022-11-03T15:37:39;13.70;73.70
13086;DHT22;6609;49.882;8.664;2022-11-03T15:40:08;13.60;73.80
13086;DHT22;6609;49.882;8.664;2022-11-03T15:42:35;13.60;73.90
13086;DHT22;6609;49.882;8.664;2022-11-03T15:45:03;13.60;74.10
13086;DHT22;6609;49.882;8.664;2022-11-03T15:47:29;13.60;74.40
13086;DHT22;6609;49.882;8.664;2022-11-03T15:49:57;13.60;74.70
13086;DHT22;6609;49.882;8.664;2022-11-03T15:52:24;13.50;74.90
13086;DHT22;6609;49.882;8.664;2022-11-03T15:54:52;13.50;75.10
13086;DHT22;6609;49.882;8.664;2022-11-03T15:57:19;13.50;75.10
13086;DHT22;6609;49.882;8.664;2022-11-03T15:59:45;13.50;75.10
13086;DHT22;6609;49.882;8.664;2022-11-03T16:02:12;13.40;74.90
13086;DHT22;6609;49.882;8.664;2022-11-03T16:04:39;13.40;74.90
13086;DHT22;6609;49.882;8.664;2022-11-03T16:07:05;13.40;74.80
13086;DHT22;6609;49.882;8.664;2022-11-03T16:09:32;13.30;74.70
13086;DHT22;6609;49.882;8.664;2022-11-03T16:12:00;13.30;74.70
13086;DHT22;6609;49.882;8.664;2022-11-03T16:14:27;13.40;74.80
13086;DHT22;6609;49.882;8.664;2022-11-03T16:16:54;13.30;74.80
13086;DHT22;6609;49.882;8.664;2022-11-03T16:19:22;13.30;74.90
13086;DHT22;6609;49.882;8.664;2022-11-03T16:21:49;13.30;75.10
13086;DHT22;6609;49.882;8.664;2022-11-03T16:24:16;13.20;75.20